Pagrindinis puslapis
METAR-TAF:

METAR-TAF

Oro uostai :

Kwethluk, Aliaska, Jungtinės Amerikos Valstijos

platuma: 60-47-25N, ilguma: 161-26-37W, Aukštis: 9 m

Dabartinis oras

Ataskaita buvo paskelbta 13 minutes, ne 04:56 UTC
Vėjas 8 kt iš Rytų/Šiaurės Rytų
Temperatūra 9°C
Drėgmė 66%
Slėgis 998 hPa
Matomumas: 16.1 km
Mažai debesys ne aukštis 6500 ft

METAR: PFKW 210456Z AUTO 07008KT 10SM FEW065 09/03 A2948 RMK AO2 SLP983 T00890033

Laikas: 21:09 (05:09 UTC)


TAF: trūkstamas

Orai ataskaitas ir orų prognozės (METAR, TAF).

turimą stotys yra geltonos ir raudonos taškus žemėlapyje.

Perkelti pele per norėdami pamatyti stoties vardą.

Tada spustelėkite, norėdami matyti oro stebėjimo ir prognozės.

Norėdami pakeisti žemėlapį: spustelėkite ant žalios mygtukų su juodo kryžiaus žemyn,; žalią mygtuką su brūkšneliu, jei norite nutolinti; arba žalių rodyklių gretimoms žemėlapius.


METAR-TAF: